createdAt,value
2018-09-09T00:02:04.981Z,15.10
2018-09-09T00:04:33.583Z,15.10
2018-09-09T00:07:02.165Z,15.20
2018-09-09T00:09:36.165Z,15.20
2018-09-09T00:12:04.678Z,15.20
2018-09-09T00:14:33.275Z,15.30
2018-09-09T00:17:01.799Z,15.40
2018-09-09T00:19:30.504Z,15.30
2018-09-09T00:21:58.993Z,15.40
2018-09-09T00:24:27.774Z,15.40
2018-09-09T00:26:56.330Z,15.40
2018-09-09T00:29:25.644Z,15.40
2018-09-09T00:31:55.502Z,15.40
2018-09-09T00:34:24.417Z,15.40
2018-09-09T00:36:52.947Z,15.30
2018-09-09T00:39:21.513Z,15.30
2018-09-09T00:41:50.138Z,15.30
2018-09-09T00:44:18.777Z,15.30
2018-09-09T00:46:47.715Z,15.20
2018-09-09T00:49:21.712Z,15.20
2018-09-09T00:51:55.986Z,15.20
2018-09-09T00:54:24.637Z,15.20
2018-09-09T00:56:53.262Z,15.10
2018-09-09T00:59:21.789Z,15.10
2018-09-09T01:01:50.438Z,15.00
2018-09-09T01:04:19.030Z,15.00
2018-09-09T01:06:48.553Z,15.00
2018-09-09T01:09:17.161Z,15.10
2018-09-09T01:11:45.682Z,15.10
2018-09-09T01:14:14.262Z,15.10
2018-09-09T01:16:43.390Z,15.10
2018-09-09T01:19:11.949Z,15.10
2018-09-09T01:21:40.455Z,15.10
2018-09-09T01:24:09.169Z,15.10
2018-09-09T01:26:37.707Z,15.10
2018-09-09T01:29:06.481Z,15.20
2018-09-09T01:31:35.013Z,15.10
2018-09-09T01:34:03.525Z,15.10
2018-09-09T01:36:32.151Z,15.10
2018-09-09T01:39:00.647Z,15.10
2018-09-09T01:41:29.217Z,15.00
2018-09-09T01:43:57.776Z,15.00
2018-09-09T01:46:26.342Z,15.00
2018-09-09T01:48:54.910Z,15.00
2018-09-09T01:51:23.495Z,14.90
2018-09-09T01:53:52.007Z,14.90
2018-09-09T01:56:20.574Z,14.90
2018-09-09T01:58:49.942Z,14.90
2018-09-09T02:01:18.462Z,14.80
2018-09-09T02:03:46.975Z,14.90
2018-09-09T02:06:16.095Z,14.90
2018-09-09T02:08:44.626Z,14.80
2018-09-09T02:11:13.299Z,14.80
2018-09-09T02:13:41.814Z,14.80
2018-09-09T02:16:10.398Z,14.70
2018-09-09T02:18:38.904Z,14.80
2018-09-09T02:21:07.463Z,14.70
2018-09-09T02:23:36.022Z,14.70
2018-09-09T02:26:04.565Z,14.70
2018-09-09T02:28:33.469Z,14.70
2018-09-09T02:31:01.974Z,14.70
2018-09-09T02:33:30.745Z,14.70
2018-09-09T02:35:59.619Z,14.70
2018-09-09T02:38:29.580Z,14.70
2018-09-09T02:40:59.224Z,14.80
2018-09-09T02:43:29.437Z,14.80
2018-09-09T02:45:59.822Z,14.90
2018-09-09T02:48:28.838Z,14.80
2018-09-09T02:50:58.252Z,14.80
2018-09-09T02:53:26.791Z,14.90
2018-09-09T02:55:55.321Z,14.80
2018-09-09T02:58:23.846Z,14.80
2018-09-09T03:00:52.501Z,14.90
2018-09-09T03:03:21.275Z,14.90
2018-09-09T03:05:49.838Z,14.90
2018-09-09T03:08:18.396Z,14.80
2018-09-09T03:10:51.191Z,14.80
2018-09-09T03:13:19.898Z,14.70
2018-09-09T03:15:48.473Z,14.70
2018-09-09T03:18:17.138Z,14.70
2018-09-09T03:20:45.702Z,14.70
2018-09-09T03:23:14.406Z,14.70
2018-09-09T03:25:42.929Z,14.70
2018-09-09T03:28:11.409Z,14.70
2018-09-09T03:30:39.941Z,14.70
2018-09-09T03:33:08.435Z,14.60
2018-09-09T03:35:37.031Z,14.60
2018-09-09T03:38:06.100Z,14.60
2018-09-09T03:40:34.643Z,14.60
2018-09-09T03:43:03.147Z,14.60
2018-09-09T03:45:31.667Z,14.60
2018-09-09T03:48:00.218Z,14.70
2018-09-09T03:50:28.770Z,14.70
2018-09-09T03:52:57.265Z,14.70
2018-09-09T03:55:25.859Z,14.70
2018-09-09T03:57:54.335Z,14.70
2018-09-09T04:00:22.863Z,14.60
2018-09-09T04:02:51.410Z,14.60
2018-09-09T04:05:19.995Z,14.70
2018-09-09T04:07:49.110Z,14.70
2018-09-09T04:10:17.757Z,14.80
2018-09-09T04:12:47.744Z,14.80
2018-09-09T04:15:16.279Z,14.80
2018-09-09T04:17:44.776Z,14.90
2018-09-09T04:20:13.827Z,14.90
2018-09-09T04:22:42.991Z,14.90
2018-09-09T04:25:11.534Z,15.00
2018-09-09T04:27:40.126Z,15.00
2018-09-09T04:30:08.659Z,15.00
2018-09-09T04:32:37.452Z,15.00
2018-09-09T04:35:06.100Z,15.00
2018-09-09T04:37:34.579Z,15.00
2018-09-09T04:40:03.402Z,15.00
2018-09-09T04:42:31.883Z,15.00
2018-09-09T04:45:00.441Z,15.00
2018-09-09T04:47:29.960Z,15.00
2018-09-09T04:49:58.467Z,15.00
2018-09-09T04:52:26.977Z,15.00
2018-09-09T04:54:55.458Z,15.00
2018-09-09T04:57:24.009Z,15.00
2018-09-09T04:59:52.486Z,15.00
2018-09-09T05:02:21.035Z,15.10
2018-09-09T05:04:49.622Z,15.10
2018-09-09T05:07:18.324Z,15.10
2018-09-09T05:09:46.783Z,15.20
2018-09-09T05:12:15.313Z,15.20
2018-09-09T05:14:43.854Z,15.30
2018-09-09T05:17:12.402Z,15.30
2018-09-09T05:19:40.948Z,15.40
2018-09-09T05:22:09.745Z,15.40
2018-09-09T05:24:39.006Z,15.40
2018-09-09T05:27:07.806Z,15.50
2018-09-09T05:29:36.337Z,15.50
2018-09-09T05:32:05.275Z,15.50
2018-09-09T05:34:35.374Z,15.60
2018-09-09T05:37:03.973Z,15.60
2018-09-09T05:39:34.191Z,15.60
2018-09-09T05:42:03.702Z,15.60
2018-09-09T05:44:33.765Z,15.70
2018-09-09T05:47:02.466Z,15.70
2018-09-09T05:49:31.234Z,15.70
2018-09-09T05:52:00.337Z,15.80
2018-09-09T05:54:30.903Z,15.80
2018-09-09T05:56:59.823Z,15.80
2018-09-09T05:59:28.640Z,15.90
2018-09-09T06:01:57.514Z,15.90
2018-09-09T06:04:26.992Z,16.00
2018-09-09T06:06:55.756Z,15.90
2018-09-09T06:09:25.769Z,16.00
2018-09-09T06:11:54.504Z,16.00
2018-09-09T06:14:24.081Z,16.00
2018-09-09T06:16:53.514Z,16.10
2018-09-09T06:19:22.259Z,16.10
2018-09-09T06:21:51.155Z,16.20
2018-09-09T06:24:19.853Z,16.20
2018-09-09T06:26:49.581Z,16.20
2018-09-09T06:29:19.614Z,16.30
2018-09-09T06:31:49.589Z,16.40
2018-09-09T06:34:18.466Z,16.60
2018-09-09T06:36:47.504Z,16.80
2018-09-09T06:39:16.216Z,16.90
2018-09-09T06:41:45.029Z,17.10
2018-09-09T06:44:14.024Z,17.10
2018-09-09T06:46:43.371Z,17.20
2018-09-09T06:49:12.011Z,17.20
2018-09-09T06:51:41.274Z,17.30
2018-09-09T06:54:11.505Z,17.30
2018-09-09T06:56:40.420Z,17.30
2018-09-09T06:59:09.223Z,17.30
2018-09-09T07:01:38.542Z,17.30
2018-09-09T07:04:07.619Z,17.30
2018-09-09T07:06:36.434Z,17.30
2018-09-09T07:09:06.758Z,17.30
2018-09-09T07:11:35.896Z,17.40
2018-09-09T07:14:04.881Z,17.30
2018-09-09T07:16:33.535Z,17.30
2018-09-09T07:19:02.850Z,17.20
2018-09-09T07:21:32.615Z,17.20
2018-09-09T07:24:02.132Z,17.20
2018-09-09T07:26:34.200Z,17.20
2018-09-09T07:29:03.881Z,17.20
2018-09-09T07:31:32.753Z,17.30
2018-09-09T07:34:01.290Z,17.40
2018-09-09T07:36:30.851Z,17.60
2018-09-09T07:38:59.654Z,17.80
2018-09-09T07:41:28.186Z,18.00
2018-09-09T07:43:56.771Z,18.30
2018-09-09T07:46:25.499Z,18.70
2018-09-09T07:48:54.095Z,18.80
2018-09-09T07:51:22.621Z,18.90
2018-09-09T07:53:51.346Z,18.90
2018-09-09T07:56:19.897Z,18.90
2018-09-09T07:58:48.688Z,19.00
2018-09-09T08:01:17.211Z,19.00
2018-09-09T08:03:45.860Z,19.10
2018-09-09T08:06:14.962Z,19.30
2018-09-09T08:08:44.139Z,19.30
2018-09-09T08:11:12.829Z,19.40
2018-09-09T08:13:41.737Z,19.40
2018-09-09T08:16:10.392Z,19.40
2018-09-09T08:18:39.090Z,19.50
2018-09-09T08:21:07.922Z,19.60
2018-09-09T08:23:37.364Z,19.60
2018-09-09T08:26:06.286Z,19.60
2018-09-09T08:28:35.377Z,19.60
2018-09-09T08:31:03.971Z,19.60
2018-09-09T08:33:32.745Z,19.50
2018-09-09T08:36:01.319Z,19.50
2018-09-09T08:38:29.868Z,19.60
2018-09-09T08:40:58.418Z,19.60
2018-09-09T08:43:27.304Z,19.70
2018-09-09T08:45:55.882Z,19.70
2018-09-09T08:48:24.449Z,19.70
2018-09-09T08:50:52.992Z,19.80
2018-09-09T08:53:21.479Z,19.80
2018-09-09T08:55:50.022Z,20.00
2018-09-09T08:58:18.774Z,20.00
2018-09-09T09:00:47.470Z,20.10
2018-09-09T09:03:16.758Z,20.10
2018-09-09T09:05:45.275Z,20.20
2018-09-09T09:08:14.124Z,20.30
2018-09-09T09:10:42.623Z,20.30
2018-09-09T09:13:11.429Z,20.40
2018-09-09T09:15:40.868Z,20.60
2018-09-09T09:18:09.622Z,20.60
2018-09-09T09:20:38.832Z,20.70
2018-09-09T09:23:07.420Z,20.80
2018-09-09T09:25:36.721Z,20.90
2018-09-09T09:28:05.303Z,21.00
2018-09-09T09:30:34.081Z,21.20
2018-09-09T09:33:03.263Z,21.20
2018-09-09T09:35:37.256Z,21.10
2018-09-09T09:38:06.239Z,21.50
2018-09-09T09:40:35.068Z,21.40
2018-09-09T09:43:03.736Z,21.30
2018-09-09T09:45:32.540Z,21.30
2018-09-09T09:48:01.135Z,21.20
2018-09-09T09:50:30.698Z,21.20
2018-09-09T09:53:00.544Z,21.10
2018-09-09T09:55:29.800Z,21.20
2018-09-09T09:57:58.669Z,21.50
2018-09-09T10:00:32.631Z,21.80
2018-09-09T10:03:01.682Z,21.90
2018-09-09T10:05:30.188Z,22.10
2018-09-09T10:07:58.772Z,22.20
2018-09-09T10:10:27.340Z,22.40
2018-09-09T10:12:55.911Z,22.50
2018-09-09T10:15:24.437Z,22.30
2018-09-09T10:17:53.516Z,22.40
2018-09-09T10:20:22.544Z,22.30
2018-09-09T10:22:51.083Z,22.20
2018-09-09T10:25:19.639Z,22.00
2018-09-09T10:27:48.171Z,21.90
2018-09-09T10:30:16.800Z,21.80
2018-09-09T10:32:45.319Z,21.80
2018-09-09T10:35:14.193Z,22.00
2018-09-09T10:37:42.712Z,22.00
2018-09-09T10:40:11.731Z,22.10
2018-09-09T10:42:40.260Z,22.20
2018-09-09T10:45:08.845Z,22.30
2018-09-09T10:47:37.388Z,22.40
2018-09-09T10:50:06.811Z,22.80
2018-09-09T10:52:36.019Z,22.80
2018-09-09T10:55:04.719Z,22.90
2018-09-09T10:57:33.255Z,22.90
2018-09-09T11:00:01.818Z,22.90
2018-09-09T11:02:30.414Z,23.00
2018-09-09T11:04:58.989Z,23.10
2018-09-09T11:07:27.681Z,23.20
2018-09-09T11:09:56.190Z,23.30
2018-09-09T11:12:28.883Z,23.40
2018-09-09T11:14:58.257Z,23.50
2018-09-09T11:17:27.136Z,23.60
2018-09-09T11:19:55.931Z,23.60
2018-09-09T11:22:24.493Z,23.70
2018-09-09T11:24:53.309Z,23.70
2018-09-09T11:27:21.899Z,23.70
2018-09-09T11:29:50.474Z,23.70
2018-09-09T11:32:19.189Z,23.80
2018-09-09T11:34:49.124Z,23.90
2018-09-09T11:37:17.816Z,23.90
2018-09-09T11:39:46.399Z,24.00
2018-09-09T11:42:15.076Z,24.00
2018-09-09T11:44:43.663Z,24.10
2018-09-09T11:47:12.212Z,24.00
2018-09-09T11:49:40.783Z,24.10
2018-09-09T11:52:09.345Z,24.10
2018-09-09T11:54:37.912Z,24.10
2018-09-09T11:57:06.533Z,24.10
2018-09-09T11:59:35.144Z,24.10
2018-09-09T12:02:04.185Z,24.00
2018-09-09T12:04:32.880Z,23.90
2018-09-09T12:07:01.519Z,23.90
2018-09-09T12:09:30.175Z,23.80
2018-09-09T12:11:58.730Z,23.70
2018-09-09T12:14:27.320Z,23.60
2018-09-09T12:16:55.912Z,23.40
2018-09-09T12:19:24.524Z,23.40
2018-09-09T12:21:53.182Z,23.40
2018-09-09T12:24:21.749Z,23.40
2018-09-09T12:26:50.269Z,23.40
2018-09-09T12:29:18.821Z,23.30
2018-09-09T12:31:47.322Z,23.30
2018-09-09T12:34:15.996Z,23.20
2018-09-09T12:36:44.662Z,23.10
2018-09-09T12:39:13.272Z,23.00
2018-09-09T12:41:41.862Z,22.90
2018-09-09T12:44:15.647Z,22.80
2018-09-09T12:46:49.517Z,22.70
2018-09-09T12:49:18.099Z,22.60
2018-09-09T12:51:46.707Z,22.40
2018-09-09T12:54:15.362Z,22.30
2018-09-09T12:56:43.893Z,22.20
2018-09-09T12:59:12.657Z,22.20
2018-09-09T13:01:41.213Z,22.10
2018-09-09T13:04:10.085Z,22.10
2018-09-09T13:06:38.657Z,22.10
2018-09-09T13:09:08.631Z,22.10
2018-09-09T13:11:37.275Z,22.10
2018-09-09T13:14:05.852Z,22.10
2018-09-09T13:16:34.553Z,22.10
2018-09-09T13:19:03.124Z,22.00
2018-09-09T13:21:31.750Z,22.00
2018-09-09T13:24:00.386Z,22.00
2018-09-09T13:26:29.028Z,21.90
2018-09-09T13:28:57.563Z,21.90
2018-09-09T13:31:26.244Z,21.80
2018-09-09T13:33:55.062Z,21.80
2018-09-09T13:36:23.695Z,21.80
2018-09-09T13:38:52.363Z,21.80
2018-09-09T13:41:20.983Z,21.80
2018-09-09T13:43:49.719Z,21.90
2018-09-09T13:46:18.299Z,22.00
2018-09-09T13:48:46.870Z,22.20
2018-09-09T13:51:15.736Z,22.40
2018-09-09T13:53:44.271Z,22.50
2018-09-09T13:56:12.863Z,22.70
2018-09-09T13:58:41.587Z,22.90
2018-09-09T14:01:10.108Z,23.00
2018-09-09T14:03:38.932Z,23.20
2018-09-09T14:06:08.284Z,23.20
2018-09-09T14:08:37.264Z,23.40
2018-09-09T14:11:05.843Z,23.40
2018-09-09T14:13:34.519Z,23.30
2018-09-09T14:16:03.028Z,23.20
2018-09-09T14:18:31.679Z,23.10
2018-09-09T14:21:00.343Z,23.10
2018-09-09T14:23:28.885Z,23.00
2018-09-09T14:25:57.427Z,23.00
2018-09-09T14:28:26.072Z,22.90
2018-09-09T14:30:54.744Z,22.80
2018-09-09T14:33:23.428Z,22.80
2018-09-09T14:35:51.967Z,22.70
2018-09-09T14:38:20.656Z,22.60
2018-09-09T14:40:49.418Z,22.60
2018-09-09T14:43:18.083Z,22.60
2018-09-09T14:45:47.208Z,22.70
2018-09-09T14:48:15.736Z,22.80
2018-09-09T14:50:44.242Z,22.90
2018-09-09T14:53:12.894Z,23.00
2018-09-09T14:55:41.700Z,23.10
2018-09-09T14:58:10.275Z,23.20
2018-09-09T15:00:38.909Z,23.30
2018-09-09T15:03:07.437Z,23.40
2018-09-09T15:05:36.050Z,23.40
2018-09-09T15:08:04.667Z,23.50
2018-09-09T15:10:33.452Z,23.60
2018-09-09T15:13:02.766Z,23.50
2018-09-09T15:15:31.336Z,23.50
2018-09-09T15:17:59.951Z,23.40
2018-09-09T15:20:28.752Z,23.30
2018-09-09T15:22:57.240Z,23.20
2018-09-09T15:25:25.907Z,23.10
2018-09-09T15:27:54.591Z,23.10
2018-09-09T15:30:23.193Z,23.00
2018-09-09T15:32:51.762Z,23.00
2018-09-09T15:35:20.336Z,23.00
2018-09-09T15:37:49.639Z,23.00
2018-09-09T15:40:18.277Z,23.00
2018-09-09T15:42:46.956Z,23.00
2018-09-09T15:45:15.724Z,23.00
2018-09-09T15:47:44.817Z,22.90
2018-09-09T15:50:13.552Z,22.90
2018-09-09T15:52:42.318Z,22.80
2018-09-09T15:55:11.550Z,22.80
2018-09-09T15:57:40.919Z,22.70
2018-09-09T16:00:09.653Z,22.70
2018-09-09T16:02:39.564Z,22.60
2018-09-09T16:05:08.986Z,22.60
2018-09-09T16:07:37.603Z,22.50
2018-09-09T16:10:06.242Z,22.50
2018-09-09T16:12:34.800Z,22.50
2018-09-09T16:15:03.942Z,22.40
2018-09-09T16:17:32.493Z,22.30
2018-09-09T16:20:01.229Z,22.20
2018-09-09T16:22:30.127Z,22.20
2018-09-09T16:24:58.907Z,22.10
2018-09-09T16:27:27.491Z,22.10
2018-09-09T16:29:56.280Z,22.10
2018-09-09T16:32:24.954Z,22.10
2018-09-09T16:34:53.537Z,22.20
2018-09-09T16:37:23.087Z,22.10
2018-09-09T16:39:51.730Z,22.10
2018-09-09T16:44:57.725Z,22.00
2018-09-09T16:47:26.322Z,21.90
2018-09-09T16:49:54.945Z,22.00
2018-09-09T16:52:24.582Z,21.90
2018-09-09T16:54:53.526Z,21.80
2018-09-09T16:57:22.089Z,21.80
2018-09-09T16:59:51.080Z,21.70
2018-09-09T17:02:20.431Z,21.70
2018-09-09T17:04:49.332Z,21.60
2018-09-09T17:07:17.927Z,21.50
2018-09-09T17:09:46.516Z,21.50
2018-09-09T17:12:16.338Z,21.40
2018-09-09T17:14:44.946Z,21.40
2018-09-09T17:17:13.503Z,21.30
2018-09-09T17:19:42.219Z,21.20
2018-09-09T17:22:10.709Z,21.10
2018-09-09T17:24:39.307Z,21.10
2018-09-09T17:27:07.913Z,21.00
2018-09-09T17:29:36.469Z,20.90
2018-09-09T17:32:04.993Z,20.80
2018-09-09T17:34:33.594Z,20.70
2018-09-09T17:37:02.224Z,20.70
2018-09-09T17:39:30.834Z,20.60
2018-09-09T17:41:59.477Z,20.50
2018-09-09T17:44:28.095Z,20.40
2018-09-09T17:46:56.614Z,20.40
2018-09-09T17:49:26.112Z,20.40
2018-09-09T17:51:54.727Z,20.30
2018-09-09T17:54:23.501Z,20.20
2018-09-09T17:56:52.084Z,20.20
2018-09-09T17:59:20.689Z,20.10
2018-09-09T18:01:49.341Z,20.10
2018-09-09T18:04:18.162Z,20.00
2018-09-09T18:06:47.616Z,20.00
2018-09-09T18:09:16.260Z,19.90
2018-09-09T18:11:45.007Z,19.80
2018-09-09T18:14:14.228Z,19.80
2018-09-09T18:16:42.806Z,19.80
2018-09-09T18:19:11.350Z,19.70
2018-09-09T18:21:40.011Z,19.70
2018-09-09T18:24:08.567Z,19.70
2018-09-09T18:26:37.213Z,19.60
2018-09-09T18:29:05.774Z,19.60
2018-09-09T18:31:34.327Z,19.50
2018-09-09T18:34:02.930Z,19.50
2018-09-09T18:36:31.531Z,19.50
2018-09-09T18:39:00.328Z,19.40
2018-09-09T18:41:28.841Z,19.40
2018-09-09T18:43:57.445Z,19.30
2018-09-09T18:46:26.074Z,19.30
2018-09-09T18:48:54.749Z,19.30
2018-09-09T18:51:23.362Z,19.20
2018-09-09T18:53:51.962Z,19.10
2018-09-09T18:56:20.512Z,19.10
2018-09-09T18:58:49.060Z,19.10
2018-09-09T19:01:17.722Z,19.10
2018-09-09T19:03:47.833Z,19.10
2018-09-09T19:06:16.409Z,19.10
2018-09-09T19:08:44.977Z,19.10
2018-09-09T19:11:14.516Z,19.10
2018-09-09T19:13:43.034Z,19.10
2018-09-09T19:16:11.603Z,19.10
2018-09-09T19:18:40.150Z,19.10
2018-09-09T19:21:10.096Z,19.10
2018-09-09T19:23:38.681Z,19.10
2018-09-09T19:26:08.507Z,19.10
2018-09-09T19:28:37.043Z,19.10
2018-09-09T19:31:05.896Z,19.10
2018-09-09T19:33:35.128Z,19.10
2018-09-09T19:36:03.732Z,19.10
2018-09-09T19:38:32.289Z,19.00
2018-09-09T19:41:00.849Z,19.00
2018-09-09T19:43:29.361Z,19.00
2018-09-09T19:45:57.981Z,19.00
2018-09-09T19:48:27.406Z,19.00
2018-09-09T19:50:55.984Z,19.00
2018-09-09T19:53:25.055Z,18.90
2018-09-09T19:55:54.151Z,18.90
2018-09-09T19:58:22.784Z,18.90
2018-09-09T20:00:51.651Z,18.90
2018-09-09T20:03:20.474Z,18.90
2018-09-09T20:05:49.055Z,18.80
2018-09-09T20:08:17.556Z,18.80
2018-09-09T20:10:46.137Z,18.80
2018-09-09T20:13:14.843Z,18.80
2018-09-09T20:15:43.687Z,18.80
2018-09-09T20:18:12.512Z,18.70
2018-09-09T20:20:41.406Z,18.70
2018-09-09T20:23:09.940Z,18.70
2018-09-09T20:25:39.165Z,18.70
2018-09-09T20:28:07.714Z,18.60
2018-09-09T20:30:36.335Z,18.60
2018-09-09T20:33:05.087Z,18.60
2018-09-09T20:35:33.587Z,18.60
2018-09-09T20:38:03.409Z,18.60
2018-09-09T20:40:32.016Z,18.60
2018-09-09T20:43:01.221Z,18.60
2018-09-09T20:45:29.814Z,18.60
2018-09-09T20:47:58.362Z,18.60
2018-09-09T20:50:26.972Z,18.60
2018-09-09T20:52:55.507Z,18.60
2018-09-09T20:55:24.108Z,18.60
2018-09-09T20:57:52.710Z,18.50
2018-09-09T21:00:21.279Z,18.50
2018-09-09T21:02:49.823Z,18.50
2018-09-09T21:05:18.618Z,18.50
2018-09-09T21:07:47.756Z,18.40
2018-09-09T21:10:16.474Z,18.40
2018-09-09T21:12:45.102Z,18.40
2018-09-09T21:15:13.671Z,18.30
2018-09-09T21:17:42.472Z,18.30
2018-09-09T21:20:11.186Z,18.20
2018-09-09T21:22:39.726Z,18.20
2018-09-09T21:25:08.313Z,18.10
2018-09-09T21:27:36.967Z,18.10
2018-09-09T21:30:05.762Z,18.00
2018-09-09T21:32:34.311Z,18.00
2018-09-09T21:35:02.884Z,17.90
2018-09-09T21:37:31.375Z,17.80
2018-09-09T21:39:59.976Z,17.80
2018-09-09T21:42:28.455Z,17.80
2018-09-09T21:44:56.997Z,17.70
2018-09-09T21:47:25.522Z,17.70
2018-09-09T21:49:54.152Z,17.70
2018-09-09T21:52:22.666Z,17.60
2018-09-09T21:54:51.201Z,17.60
2018-09-09T21:57:19.700Z,17.50
2018-09-09T21:59:48.273Z,17.50
2018-09-09T22:02:16.766Z,17.40
2018-09-09T22:04:45.349Z,17.40
2018-09-09T22:07:14.379Z,17.30
2018-09-09T22:09:44.380Z,17.30
2018-09-09T22:12:13.520Z,17.30
2018-09-09T22:14:42.843Z,17.30
2018-09-09T22:17:11.667Z,17.30
2018-09-09T22:19:40.422Z,17.20
2018-09-09T22:22:08.970Z,17.20
2018-09-09T22:24:37.520Z,17.20
2018-09-09T22:27:06.048Z,17.10
2018-09-09T22:29:34.654Z,17.10
2018-09-09T22:32:03.183Z,17.10
2018-09-09T22:34:31.771Z,17.10
2018-09-09T22:37:00.295Z,17.10
2018-09-09T22:39:28.815Z,17.10
2018-09-09T22:41:57.311Z,17.10
2018-09-09T22:44:25.909Z,17.10
2018-09-09T22:46:54.441Z,17.10
2018-09-09T22:49:22.983Z,17.10
2018-09-09T22:51:51.718Z,17.10
2018-09-09T22:54:20.335Z,17.10
2018-09-09T22:56:48.838Z,17.00
2018-09-09T22:59:17.342Z,17.00
2018-09-09T23:01:46.101Z,17.00
2018-09-09T23:04:14.670Z,16.90
2018-09-09T23:06:43.193Z,16.90
2018-09-09T23:09:13.074Z,16.80
2018-09-09T23:11:41.607Z,16.80
2018-09-09T23:14:10.214Z,16.70
2018-09-09T23:16:39.087Z,16.70
2018-09-09T23:19:07.663Z,16.70
2018-09-09T23:21:36.277Z,16.60
2018-09-09T23:24:04.854Z,16.60
2018-09-09T23:26:33.322Z,16.60
2018-09-09T23:29:01.848Z,16.50
2018-09-09T23:31:31.198Z,16.50
2018-09-09T23:33:59.756Z,16.50
2018-09-09T23:36:28.245Z,16.40
2018-09-09T23:38:58.130Z,16.40
2018-09-09T23:41:26.643Z,16.40
2018-09-09T23:43:55.175Z,16.30
2018-09-09T23:46:23.662Z,16.30
2018-09-09T23:48:52.182Z,16.30
2018-09-09T23:51:20.683Z,16.30
2018-09-09T23:53:49.236Z,16.20
2018-09-09T23:56:17.725Z,16.30
2018-09-09T23:58:46.320Z,16.20
